Time;durP1;ratioP1;P1;durP2;ratioP2;P2;SDS_P1;SDS_P2;PMS_P1;PMS_P2;Temp;Humidity;BMP_temperature;BMP_pressure;BME280_temperature;BME280_humidity;BME280_pressure;Samples;Min_cycle;Max_cycle;Signal;HPM_P1;HPM_P2
2022/10/17 00:00:56;;;;;;;8.10;4.03;;;12.50;99.90;;;;;;5053600;28;20056;-73
2022/10/17 00:03:21;;;;;;;6.32;3.40;;;12.50;99.90;;;;;;5054358;28;20041;-73
2022/10/17 00:05:48;;;;;;;6.25;3.70;;;12.40;99.90;;;;;;5036011;28;20056;-73
2022/10/17 00:08:15;;;;;;;8.55;3.60;;;12.40;99.90;;;;;;5053787;28;20040;-73
2022/10/17 00:10:42;;;;;;;8.02;4.60;;;12.50;99.90;;;;;;5053587;28;20208;-73
2022/10/17 00:13:08;;;;;;;6.82;3.08;;;12.40;99.90;;;;;;5053698;28;20053;-73
2022/10/17 00:15:33;;;;;;;7.18;3.28;;;12.50;99.90;;;;;;5052033;28;20095;-73
2022/10/17 00:18:01;;;;;;;4.35;2.65;;;12.40;99.90;;;;;;5052668;28;20044;-73
2022/10/17 00:20:29;;;;;;;11.90;3.67;;;12.60;99.90;;;;;;5052492;28;20067;-73
2022/10/17 00:22:56;;;;;;;5.63;2.20;;;12.60;99.90;;;;;;5053583;28;20056;-73
2022/10/17 00:25:21;;;;;;;5.95;2.65;;;12.70;99.90;;;;;;5053399;28;20045;-73
2022/10/17 00:27:47;;;;;;;8.38;2.35;;;12.60;99.90;;;;;;5053625;28;20508;-73
2022/10/17 00:30:14;;;;;;;7.47;2.30;;;12.60;99.90;;;;;;5052744;28;20444;-73
2022/10/17 00:32:40;;;;;;;7.60;2.28;;;12.50;99.90;;;;;;5052302;28;20128;-73
2022/10/17 00:35:07;;;;;;;6.35;1.83;;;12.60;99.90;;;;;;5053595;28;20041;-73
2022/10/17 00:37:34;;;;;;;6.63;2.38;;;12.50;99.90;;;;;;5053351;28;20510;-73
2022/10/17 00:40:00;;;;;;;5.43;2.10;;;12.80;99.90;;;;;;5035291;28;20493;-73
2022/10/17 00:42:26;;;;;;;3.97;1.90;;;12.60;99.90;;;;;;5053406;28;20052;-73
2022/10/17 00:45:23;;;;;;;4.88;1.88;;;12.60;99.90;;;;;;5052575;28;20051;-73
2022/10/17 00:48:03;;;;;;;6.20;2.30;;;12.60;99.90;;;;;;5053269;28;20055;-73
2022/10/17 00:50:30;;;;;;;5.32;2.13;;;12.60;99.90;;;;;;5035335;28;20390;-73
2022/10/17 00:53:00;;;;;;;4.60;2.10;;;12.70;99.90;;;;;;5053356;28;20053;-73
2022/10/17 00:55:32;;;;;;;7.70;2.38;;;13.00;99.90;;;;;;5053162;28;20063;-73
2022/10/17 00:58:00;;;;;;;8.93;2.58;;;12.60;99.90;;;;;;5053386;28;20048;-73
2022/10/17 01:00:26;;;;;;;7.10;2.55;;;12.70;99.90;;;;;;5053155;28;20558;-73
2022/10/17 01:02:52;;;;;;;8.48;2.55;;;12.70;99.90;;;;;;5053052;28;20052;-73
2022/10/17 01:05:18;;;;;;;5.97;2.65;;;12.90;99.90;;;;;;5052028;28;20552;-73
2022/10/17 01:07:46;;;;;;;4.03;2.40;;;12.80;99.90;;;;;;5053676;28;20052;-73
2022/10/17 01:10:13;;;;;;;4.35;2.35;;;12.90;99.90;;;;;;5053062;28;20041;-73
2022/10/17 01:12:42;;;;;;;4.00;2.70;;;12.90;99.90;;;;;;5053584;28;20063;-73
2022/10/17 01:15:08;;;;;;;5.15;2.58;;;12.80;99.90;;;;;;5056880;28;20439;-76
2022/10/17 01:17:57;;;;;;;6.78;3.13;;;12.80;99.90;;;;;;5056769;28;20049;-73
2022/10/17 01:20:26;;;;;;;4.97;2.83;;;12.90;99.90;;;;;;5056257;28;20049;-73
2022/10/17 01:23:32;;;;;;;4.10;2.70;;;13.00;99.90;;;;;;5055875;28;20409;-73
2022/10/17 01:26:45;;;;;;;5.28;3.03;;;12.90;99.90;;;;;;5055768;28;20068;-73
2022/10/17 01:29:39;;;;;;;7.18;3.00;;;13.00;99.90;;;;;;5045628;28;20049;-73
2022/10/17 01:32:32;;;;;;;4.40;2.58;;;12.90;99.90;;;;;;5055688;28;20103;-73
2022/10/17 01:35:35;;;;;;;7.72;3.25;;;13.00;99.90;;;;;;5057016;28;20052;-73
2022/10/17 01:38:19;;;;;;;5.85;3.15;;;13.20;99.90;;;;;;5056600;28;20045;-73
2022/10/17 01:41:08;;;;;;;6.07;3.17;;;12.90;99.90;;;;;;5056783;28;20057;-73
2022/10/17 01:43:44;;;;;;;4.10;3.40;;;13.00;99.90;;;;;;5056616;28;20103;-73
2022/10/17 01:46:37;;;;;;;8.90;3.65;;;13.10;99.90;;;;;;5056249;28;20095;-73
2022/10/17 01:49:06;;;;;;;6.07;3.25;;;13.00;99.90;;;;;;5055833;28;20075;-73
2022/10/17 01:51:41;;;;;;;6.25;3.58;;;13.20;99.90;;;;;;5055354;28;20119;-73
2022/10/17 01:54:42;;;;;;;7.82;3.53;;;13.10;99.90;;;;;;5038851;28;20443;-73
2022/10/17 01:57:13;;;;;;;7.30;3.78;;;13.00;99.90;;;;;;5051446;28;20131;-73
2022/10/17 01:59:43;;;;;;;5.63;3.40;;;13.20;99.90;;;;;;5055539;28;20048;-73
2022/10/17 02:02:10;;;;;;;7.65;3.97;;;13.10;99.90;;;;;;5072036;28;20049;-73
2022/10/17 02:04:36;;;;;;;4.80;3.42;;;13.10;99.90;;;;;;5071957;28;20135;-73
2022/10/17 02:07:07;;;;;;;5.85;4.07;;;13.00;99.90;;;;;;5056332;28;20467;-73
2022/10/17 02:09:34;;;;;;;7.75;4.10;;;13.20;99.90;;;;;;5055989;28;20091;-73
2022/10/17 02:12:03;;;;;;;7.00;4.03;;;13.10;99.90;;;;;;5055464;28;20064;-73
2022/10/17 02:14:53;;;;;;;7.00;3.90;;;13.10;99.90;;;;;;5054139;28;20389;-73
2022/10/17 02:17:34;;;;;;;6.70;3.90;;;13.20;99.90;;;;;;5053246;28;20048;-73
2022/10/17 02:19:59;;;;;;;5.00;3.90;;;13.30;99.90;;;;;;5053742;28;20060;-73
2022/10/17 02:22:37;;;;;;;6.68;3.55;;;13.10;99.90;;;;;;5054762;28;20131;-73
2022/10/17 02:25:14;;;;;;;6.32;4.10;;;13.10;99.90;;;;;;5053519;28;20045;-73
2022/10/17 02:28:15;;;;;;;7.45;4.20;;;13.30;99.90;;;;;;5054643;28;20047;-73
2022/10/17 02:30:40;;;;;;;6.78;4.32;;;13.00;99.90;;;;;;5054946;28;20045;-73
2022/10/17 02:33:09;;;;;;;5.65;4.28;;;13.10;99.90;;;;;;5054618;28;20421;-74
2022/10/17 02:35:40;;;;;;;5.30;4.07;;;13.10;99.90;;;;;;5053237;28;20179;-73
2022/10/17 02:38:08;;;;;;;5.35;3.95;;;13.10;99.90;;;;;;5054696;28;20381;-73
2022/10/17 02:40:36;;;;;;;7.13;4.03;;;13.00;99.90;;;;;;5070166;28;20146;-73
2022/10/17 02:43:02;;;;;;;5.38;3.95;;;13.10;99.90;;;;;;5053228;28;20053;-74
2022/10/17 02:45:29;;;;;;;7.20;4.00;;;13.10;99.90;;;;;;5053985;28;20124;-73
2022/10/17 02:48:01;;;;;;;6.75;4.30;;;13.00;99.90;;;;;;5054380;28;20063;-73
2022/10/17 02:50:47;;;;;;;8.10;4.70;;;13.00;99.90;;;;;;5054324;28;20079;-73
2022/10/17 02:53:24;;;;;;;5.47;4.32;;;13.10;99.90;;;;;;5054050;28;20752;-74
2022/10/17 02:55:55;;;;;;;4.78;3.63;;;13.10;99.90;;;;;;5053755;28;20091;-74
2022/10/17 02:58:31;;;;;;;7.78;4.20;;;13.10;99.90;;;;;;5054475;28;20049;-73
2022/10/17 03:00:57;;;;;;;10.52;4.55;;;13.00;99.90;;;;;;5054125;28;20053;-73
2022/10/17 03:03:29;;;;;;;5.10;4.47;;;13.00;99.90;;;;;;5054221;28;20128;-73
2022/10/17 03:05:54;;;;;;;8.68;4.43;;;13.00;99.90;;;;;;5052904;28;20500;-73
2022/10/17 03:08:20;;;;;;;6.97;4.57;;;13.20;99.90;;;;;;5053310;28;20102;-73
2022/10/17 03:10:47;;;;;;;8.02;4.82;;;13.10;99.90;;;;;;5054762;28;20106;-73
2022/10/17 03:13:14;;;;;;;6.03;4.65;;;12.90;99.90;;;;;;5051780;28;133296;-73
2022/10/17 03:15:39;;;;;;;7.57;5.38;;;13.10;99.90;;;;;;5052956;28;20041;-73
2022/10/17 03:18:05;;;;;;;9.45;5.55;;;13.00;99.90;;;;;;5054080;28;20059;-73
2022/10/17 03:20:31;;;;;;;8.38;5.85;;;13.00;99.90;;;;;;5054551;28;20045;-74
2022/10/17 03:22:57;;;;;;;8.73;6.07;;;13.00;99.90;;;;;;5070280;28;20052;-73
2022/10/17 03:25:22;;;;;;;10.90;6.72;;;12.80;99.90;;;;;;5054743;28;20052;-73
2022/10/17 03:27:48;;;;;;;8.85;6.15;;;13.00;99.90;;;;;;5054829;28;20132;-73
2022/10/17 03:30:14;;;;;;;10.15;5.85;;;13.10;99.90;;;;;;5053696;28;20131;-73
2022/10/17 03:32:39;;;;;;;8.57;5.45;;;13.00;99.90;;;;;;5053281;28;20049;-73
2022/10/17 03:35:05;;;;;;;7.78;5.50;;;12.90;99.90;;;;;;5053690;28;20073;-73
2022/10/17 03:37:31;;;;;;;6.43;5.75;;;13.00;99.90;;;;;;5036881;28;20041;-73
2022/10/17 03:39:57;;;;;;;8.00;5.55;;;13.20;99.90;;;;;;5053799;28;20048;-73
2022/10/17 03:42:22;;;;;;;7.28;5.35;;;13.20;99.90;;;;;;5054647;28;20478;-73
2022/10/17 03:44:48;;;;;;;9.55;5.68;;;12.90;99.90;;;;;;5053374;28;20397;-73
2022/10/17 03:47:14;;;;;;;7.07;5.90;;;13.00;99.90;;;;;;5053686;28;20049;-73
2022/10/17 03:49:39;;;;;;;7.15;5.97;;;13.00;99.90;;;;;;5054001;28;20053;-73
2022/10/17 03:52:05;;;;;;;8.93;5.35;;;13.00;99.90;;;;;;5053218;28;20095;-73
2022/10/17 03:54:31;;;;;;;12.35;6.47;;;12.90;99.90;;;;;;5053297;28;20493;-73
2022/10/17 03:56:56;;;;;;;7.60;6.00;;;13.00;99.90;;;;;;5053000;28;20099;-73
2022/10/17 03:59:22;;;;;;;8.95;5.65;;;13.00;99.90;;;;;;5054136;28;20481;-73
2022/10/17 04:01:48;;;;;;;10.35;7.05;;;13.10;99.90;;;;;;5052879;28;20132;-73
2022/10/17 04:04:13;;;;;;;9.95;6.40;;;13.20;99.90;;;;;;5052884;28;20217;-73
2022/10/17 04:06:39;;;;;;;8.00;5.65;;;13.00;99.90;;;;;;5053770;28;20043;-73
2022/10/17 04:09:06;;;;;;;8.13;6.25;;;13.20;99.90;;;;;;5054017;28;20405;-73
2022/10/17 04:11:32;;;;;;;8.52;5.93;;;13.00;99.90;;;;;;5052486;28;20053;-73
2022/10/17 04:13:58;;;;;;;9.55;5.82;;;12.90;99.90;;;;;;5054034;28;20107;-73
2022/10/17 04:16:25;;;;;;;10.50;6.20;;;13.00;99.90;;;;;;5068717;28;20052;-73
2022/10/17 04:18:55;;;;;;;7.35;5.97;;;13.00;99.90;;;;;;5053444;28;20049;-73
2022/10/17 04:21:23;;;;;;;7.65;5.95;;;11.00;99.90;;;;;;5052552;28;20047;-73
2022/10/17 04:23:56;;;;;;;6.53;5.93;;;13.00;99.90;;;;;;5053660;28;20044;-73
2022/10/17 04:26:22;;;;;;;6.90;5.43;;;13.00;99.90;;;;;;5053811;28;20044;-73
2022/10/17 04:28:48;;;;;;;7.65;6.03;;;13.00;99.90;;;;;;5069350;28;20043;-73
2022/10/17 04:31:14;;;;;;;8.18;6.05;;;12.90;99.90;;;;;;5053443;28;20045;-73
2022/10/17 04:33:40;;;;;;;8.60;5.78;;;13.00;99.90;;;;;;5053328;28;20044;-73
2022/10/17 04:36:12;;;;;;;8.27;5.93;;;12.90;99.90;;;;;;5053452;28;20132;-73
2022/10/17 04:38:38;;;;;;;8.30;5.97;;;13.00;99.90;;;;;;5053866;28;20053;-73
2022/10/17 04:41:07;;;;;;;10.15;5.68;;;12.90;99.90;;;;;;5053372;28;20048;-73
2022/10/17 04:43:35;;;;;;;11.05;6.22;;;13.00;99.90;;;;;;5053302;28;20107;-73
2022/10/17 04:46:02;;;;;;;8.00;5.72;;;13.00;99.90;;;;;;5052513;28;20543;-73
2022/10/17 04:48:29;;;;;;;7.03;5.68;;;13.00;99.90;;;;;;5053254;28;20501;-73
2022/10/17 04:50:59;;;;;;;7.05;5.90;;;13.10;99.90;;;;;;5053597;28;20386;-73
2022/10/17 04:53:25;;;;;;;8.95;5.88;;;13.10;99.90;;;;;;5052150;28;20044;-73
2022/10/17 04:55:51;;;;;;;8.23;7.00;;;12.90;99.90;;;;;;5051926;28;20120;-73
2022/10/17 04:58:18;;;;;;;9.80;6.40;;;13.00;99.90;;;;;;5053071;28;20111;-73
2022/10/17 05:00:44;;;;;;;8.77;5.97;;;13.10;99.90;;;;;;5052989;28;20411;-74
2022/10/17 05:03:10;;;;;;;7.68;5.93;;;13.20;99.90;;;;;;5053402;28;20439;-73
2022/10/17 05:05:37;;;;;;;7.30;5.90;;;13.10;99.90;;;;;;5053282;28;20049;-73
2022/10/17 05:08:04;;;;;;;7.47;6.00;;;13.20;99.90;;;;;;5069046;28;20397;-73
2022/10/17 05:10:34;;;;;;;8.13;6.05;;;13.20;99.90;;;;;;5068841;28;20161;-73
2022/10/17 05:13:00;;;;;;;7.15;6.03;;;13.20;99.90;;;;;;5053270;28;20060;-73
2022/10/17 05:15:25;;;;;;;8.25;5.93;;;13.30;99.90;;;;;;5051574;28;20401;-76
2022/10/17 05:17:54;;;;;;;8.45;6.00;;;13.30;99.90;;;;;;5052361;28;20049;-73
2022/10/17 05:20:20;;;;;;;8.30;5.70;;;13.40;99.90;;;;;;5052869;28;20511;-73
2022/10/17 05:22:46;;;;;;;6.85;5.90;;;13.20;99.90;;;;;;5052933;28;20045;-73
2022/10/17 05:25:12;;;;;;;6.28;5.68;;;13.20;99.90;;;;;;5053149;28;20044;-73
2022/10/17 05:27:38;;;;;;;8.88;5.55;;;13.20;99.90;;;;;;5052714;28;20539;-74
2022/10/17 05:30:04;;;;;;;8.65;6.18;;;13.40;99.90;;;;;;5053080;28;20052;-73
2022/10/17 05:32:30;;;;;;;8.73;5.85;;;13.50;99.90;;;;;;5051770;28;20139;-73
2022/10/17 05:34:55;;;;;;;8.18;6.28;;;13.60;99.90;;;;;;5035115;28;20121;-73
2022/10/17 05:37:21;;;;;;;8.18;6.22;;;13.60;99.90;;;;;;5052989;28;20052;-73
2022/10/17 05:39:47;;;;;;;7.22;5.97;;;13.50;99.90;;;;;;5051525;28;20102;-73
2022/10/17 05:42:13;;;;;;;9.00;6.38;;;13.60;99.90;;;;;;5068355;28;20041;-74
2022/10/17 05:44:40;;;;;;;8.68;5.70;;;13.30;99.90;;;;;;5052747;28;20409;-73
2022/10/17 05:47:07;;;;;;;8.20;6.55;;;13.60;99.90;;;;;;5050927;28;20049;-73
2022/10/17 05:49:33;;;;;;;9.75;6.50;;;13.50;99.90;;;;;;5052014;28;20142;-74
2022/10/17 05:51:59;;;;;;;8.77;5.85;;;13.50;99.90;;;;;;5051477;28;20059;-74
2022/10/17 05:54:25;;;;;;;7.93;7.13;;;13.50;99.90;;;;;;5052677;28;20055;-74
2022/10/17 05:56:52;;;;;;;7.93;6.00;;;13.50;99.90;;;;;;5051236;28;20041;-73
2022/10/17 05:59:18;;;;;;;7.78;6.10;;;13.50;99.90;;;;;;5036633;28;20049;-73
2022/10/17 06:01:43;;;;;;;8.50;5.90;;;13.40;99.90;;;;;;5055430;28;20045;-73
2022/10/17 06:04:09;;;;;;;8.07;5.88;;;13.60;99.90;;;;;;5055176;28;20543;-73
2022/10/17 06:06:36;;;;;;;8.95;6.70;;;13.50;99.90;;;;;;5056213;28;20048;-74
2022/10/17 06:09:03;;;;;;;9.35;6.93;;;13.80;99.90;;;;;;5054938;28;20107;-73
2022/10/17 06:11:28;;;;;;;12.85;6.82;;;13.60;99.90;;;;;;5071192;28;20045;-74
2022/10/17 06:13:54;;;;;;;8.77;6.68;;;13.90;99.90;;;;;;5056512;28;20053;-73
2022/10/17 06:16:21;;;;;;;8.05;6.20;;;13.60;99.90;;;;;;5055641;28;20064;-74
2022/10/17 06:18:46;;;;;;;9.75;7.00;;;13.70;99.90;;;;;;5055018;28;20056;-73
2022/10/17 06:21:15;;;;;;;8.55;6.85;;;13.90;99.90;;;;;;5071678;28;20037;-73
2022/10/17 06:23:41;;;;;;;7.85;6.93;;;13.60;99.90;;;;;;5056004;28;20052;-73
2022/10/17 06:26:08;;;;;;;10.05;7.45;;;13.80;99.90;;;;;;5055898;28;20033;-74
2022/10/17 06:28:35;;;;;;;9.63;6.97;;;13.70;99.90;;;;;;5055980;28;20075;-73
2022/10/17 06:31:08;;;;;;;8.52;6.68;;;13.60;99.90;;;;;;5056058;28;20057;-73
2022/10/17 06:33:34;;;;;;;9.70;6.88;;;13.80;99.90;;;;;;5038240;28;20066;-73
2022/10/17 06:36:01;;;;;;;9.88;7.38;;;13.70;99.90;;;;;;5055425;28;20501;-74
2022/10/17 06:38:27;;;;;;;9.40;7.53;;;13.90;99.90;;;;;;5054479;28;20048;-74
2022/10/17 06:40:56;;;;;;;10.18;6.85;;;13.70;99.90;;;;;;5037535;28;20045;-74
2022/10/17 06:43:22;;;;;;;9.20;7.28;;;14.00;99.90;;;;;;5055774;28;20056;-73
2022/10/17 06:45:48;;;;;;;9.73;7.72;;;13.80;99.90;;;;;;5053813;28;20049;-73
2022/10/17 06:48:14;;;;;;;10.55;7.20;;;13.90;99.90;;;;;;5054565;28;20053;-73
2022/10/17 06:50:39;;;;;;;9.55;7.50;;;13.90;99.90;;;;;;5054667;28;20048;-74
2022/10/17 06:53:05;;;;;;;9.88;8.00;;;14.00;99.90;;;;;;5055231;28;20485;-74
2022/10/17 06:55:31;;;;;;;8.63;7.47;;;13.80;99.90;;;;;;5054092;28;20417;-73
2022/10/17 06:57:57;;;;;;;12.25;7.93;;;13.90;99.90;;;;;;5054370;28;20052;-74
2022/10/17 07:00:25;;;;;;;9.43;7.47;;;13.90;99.90;;;;;;5055313;28;20051;-74
2022/10/17 07:02:51;;;;;;;12.18;8.05;;;13.90;99.90;;;;;;5055337;28;20103;-74
2022/10/17 07:05:18;;;;;;;9.70;7.47;;;14.00;99.90;;;;;;5055146;28;20497;-73
2022/10/17 07:07:44;;;;;;;9.63;7.82;;;13.90;99.90;;;;;;5053882;28;20132;-73
2022/10/17 07:10:10;;;;;;;12.43;8.15;;;14.20;99.90;;;;;;5052918;28;20053;-74
2022/10/17 07:12:36;;;;;;;11.20;7.82;;;14.00;99.90;;;;;;5070135;28;20053;-74
2022/10/17 07:15:03;;;;;;;12.27;7.70;;;14.10;99.90;;;;;;5054969;28;20049;-74
2022/10/17 07:17:30;;;;;;;10.23;7.63;;;14.00;99.90;;;;;;5053185;28;20054;-74
2022/10/17 07:19:55;;;;;;;10.98;7.90;;;14.10;99.90;;;;;;5054726;28;20041;-73
2022/10/17 07:22:21;;;;;;;10.45;7.60;;;14.10;99.90;;;;;;5054565;28;20056;-74
2022/10/17 07:24:47;;;;;;;9.88;7.60;;;14.40;99.90;;;;;;5053658;28;20108;-73
2022/10/17 07:27:13;;;;;;;10.00;7.88;;;14.10;99.90;;;;;;5037263;28;20056;-73
2022/10/17 07:29:39;;;;;;;13.00;8.50;;;14.20;99.90;;;;;;5070249;28;20045;-73
2022/10/17 07:32:07;;;;;;;10.48;7.97;;;14.30;99.90;;;;;;5054565;28;20052;-76
2022/10/17 07:34:34;;;;;;;10.90;8.40;;;14.30;99.90;;;;;;5054490;28;20056;-73
2022/10/17 07:37:01;;;;;;;9.02;7.40;;;14.40;99.90;;;;;;5036737;28;20053;-74
2022/10/17 07:39:26;;;;;;;12.85;7.80;;;14.40;99.90;;;;;;5053422;28;20111;-74
2022/10/17 07:41:52;;;;;;;13.23;7.85;;;14.60;99.90;;;;;;5054476;28;20044;-73
2022/10/17 07:44:18;;;;;;;9.90;8.02;;;14.60;99.90;;;;;;5054314;28;20412;-73
2022/10/17 07:46:44;;;;;;;13.57;8.40;;;14.60;99.90;;;;;;5054313;28;20033;-73
2022/10/17 07:49:09;;;;;;;13.13;8.20;;;14.50;99.90;;;;;;5070036;28;20551;-73
2022/10/17 07:51:35;;;;;;;11.98;8.65;;;14.50;99.90;;;;;;5054297;28;20106;-74
2022/10/17 07:54:01;;;;;;;10.18;7.72;;;14.60;99.90;;;;;;5054497;28;20071;-73
2022/10/17 07:56:28;;;;;;;10.70;8.25;;;14.80;99.90;;;;;;5053137;28;20397;-74
2022/10/17 07:58:55;;;;;;;11.25;8.32;;;14.70;99.90;;;;;;5054801;28;20140;-74
2022/10/17 08:01:21;;;;;;;8.20;7.35;;;14.60;99.90;;;;;;5054345;28;20053;-74
2022/10/17 08:03:50;;;;;;;12.85;7.80;;;14.80;99.90;;;;;;5069762;28;20402;-72
2022/10/17 08:06:16;;;;;;;10.43;7.95;;;14.80;99.90;;;;;;5054106;28;20080;-73
2022/10/17 08:08:42;;;;;;;10.95;7.72;;;14.90;99.90;;;;;;5036515;28;20104;-74
2022/10/17 08:11:10;;;;;;;11.70;8.38;;;14.90;99.90;;;;;;5054083;28;20084;-73
2022/10/17 08:13:37;;;;;;;10.90;7.53;;;15.10;99.90;;;;;;5053862;28;20461;-73
2022/10/17 08:16:06;;;;;;;10.90;7.38;;;14.90;99.90;;;;;;5053621;28;20048;-73
2022/10/17 08:18:32;;;;;;;13.40;8.57;;;13.90;99.90;;;;;;5052803;28;20477;-74
2022/10/17 08:21:05;;;;;;;11.50;7.85;;;15.10;99.90;;;;;;5053624;28;20056;-74
2022/10/17 08:23:31;;;;;;;13.20;7.47;;;15.00;99.90;;;;;;5052803;28;20056;-74
2022/10/17 08:26:01;;;;;;;10.38;7.82;;;15.20;99.90;;;;;;5052490;28;20507;-75
2022/10/17 08:28:27;;;;;;;11.70;8.20;;;15.10;99.90;;;;;;5060525;28;20041;-75
2022/10/17 08:31:00;;;;;;;12.63;8.30;;;15.20;99.90;;;;;;5063190;28;20040;-75
2022/10/17 08:33:26;;;;;;;9.80;7.47;;;15.30;99.90;;;;;;5060006;28;20047;-74
2022/10/17 08:35:51;;;;;;;9.68;6.95;;;15.30;99.90;;;;;;5063410;28;20040;-75
2022/10/17 08:38:17;;;;;;;10.40;7.85;;;15.40;99.90;;;;;;5063031;28;20062;-75
2022/10/17 08:40:47;;;;;;;10.50;7.55;;;15.50;99.90;;;;;;5062037;28;20147;-76
2022/10/17 08:43:25;;;;;;;10.55;7.32;;;15.60;99.90;;;;;;5055420;28;20043;-74
2022/10/17 08:45:59;;;;;;;8.63;6.65;;;15.50;99.90;;;;;;5057622;28;20119;-74
2022/10/17 08:48:27;;;;;;;10.75;6.63;;;15.50;99.90;;;;;;5071430;28;20056;-74
2022/10/17 08:51:09;;;;;;;8.73;6.57;;;15.70;99.90;;;;;;5057781;28;20504;-74
2022/10/17 08:53:54;;;;;;;8.00;6.47;;;15.60;99.90;;;;;;5059186;28;20118;-74
2022/10/17 08:56:24;;;;;;;13.30;7.20;;;15.70;99.90;;;;;;5062326;28;20048;-75
2022/10/17 08:58:50;;;;;;;7.60;6.18;;;15.80;99.90;;;;;;5062754;28;20041;-75
2022/10/17 09:01:22;;;;;;;9.75;6.97;;;15.70;99.90;;;;;;5062315;28;20377;-76
2022/10/17 09:04:21;;;;;;;9.05;5.82;;;16.00;99.90;;;;;;5075945;28;20052;-75
2022/10/17 09:06:55;;;;;;;9.63;6.68;;;16.10;99.90;;;;;;5050347;28;20060;-75
2022/10/17 09:09:39;;;;;;;6.60;5.75;;;16.00;99.90;;;;;;5063727;28;20044;-74
2022/10/17 09:12:35;;;;;;;8.52;6.38;;;15.90;99.90;;;;;;5056788;28;20063;-74
2022/10/17 09:15:26;;;;;;;12.57;6.40;;;16.00;99.90;;;;;;5063094;28;20048;-74
2022/10/17 09:17:54;;;;;;;6.80;5.80;;;16.10;99.90;;;;;;5053849;28;20049;-77
2022/10/17 09:20:29;;;;;;;7.70;5.95;;;16.00;99.90;;;;;;5051717;28;20519;-74
2022/10/17 09:23:11;;;;;;;8.80;5.93;;;16.20;99.90;;;;;;5053152;28;20131;-74
2022/10/17 09:25:44;;;;;;;9.65;5.53;;;16.50;99.90;;;;;;5053141;28;20045;-73
2022/10/17 09:28:24;;;;;;;8.35;6.20;;;16.30;99.90;;;;;;5035748;28;20084;-74
2022/10/17 09:31:22;;;;;;;7.20;5.80;;;16.20;99.90;;;;;;5053213;28;20537;-74
2022/10/17 09:33:50;;;;;;;11.57;6.50;;;16.30;99.90;;;;;;5053615;28;20049;-74
2022/10/17 09:36:31;;;;;;;7.53;5.82;;;16.50;99.90;;;;;;5055724;28;20127;-74
2022/10/17 09:39:00;;;;;;;7.32;5.78;;;16.40;99.90;;;;;;5056951;28;20099;-74
2022/10/17 09:41:39;;;;;;;8.18;5.97;;;17.00;99.90;;;;;;5072925;28;20053;-73
2022/10/17 09:44:27;;;;;;;8.25;6.03;;;16.30;99.90;;;;;;5056697;28;20505;-74
2022/10/17 09:47:19;;;;;;;8.60;6.72;;;16.20;99.90;;;;;;5056545;28;20081;-74
2022/10/17 09:49:47;;;;;;;8.57;6.80;;;16.50;99.90;;;;;;5056941;28;20053;-74
2022/10/17 09:52:24;;;;;;;9.50;6.22;;;16.60;99.90;;;;;;5022742;28;20135;-73
2022/10/17 09:55:03;;;;;;;8.32;6.45;;;16.40;99.90;;;;;;5055473;28;20405;-74
2022/10/17 09:57:58;;;;;;;9.98;6.35;;;16.40;99.90;;;;;;5056504;28;20489;-74
2022/10/17 10:00:39;;;;;;;8.02;5.25;;;16.60;99.90;;;;;;5072478;28;20124;-75
2022/10/17 10:03:20;;;;;;;9.18;5.40;;;16.40;99.90;;;;;;5056278;28;20047;-74
2022/10/17 10:06:10;;;;;;;9.07;6.40;;;16.50;99.90;;;;;;5056446;28;20119;-74
2022/10/17 10:08:51;;;;;;;6.75;5.50;;;16.60;99.90;;;;;;5056435;28;20052;-74
2022/10/17 10:11:21;;;;;;;6.75;5.15;;;16.40;99.90;;;;;;5054237;28;20041;-76
2022/10/17 10:13:48;;;;;;;8.60;5.45;;;16.70;99.90;;;;;;5059608;28;20131;-74
2022/10/17 10:16:18;;;;;;;9.32;5.75;;;16.80;99.90;;;;;;5064408;28;20051;-73
2022/10/17 10:18:45;;;;;;;10.63;6.00;;;16.80;99.90;;;;;;5065305;28;20512;-73
2022/10/17 10:21:19;;;;;;;9.00;6.13;;;16.60;99.90;;;;;;5064274;28;20060;-75
2022/10/17 10:24:03;;;;;;;8.43;6.43;;;16.60;99.90;;;;;;5064689;28;20111;-81
2022/10/17 10:26:42;;;;;;;8.45;6.05;;;16.60;99.90;;;;;;5063771;28;20055;-81
2022/10/17 10:29:33;;;;;;;7.50;6.05;;;16.80;99.90;;;;;;5064145;28;20045;-81
2022/10/17 10:32:27;;;;;;;11.02;6.30;;;16.70;99.90;;;;;;5069439;28;20102;-78
2022/10/17 10:34:54;;;;;;;7.00;5.97;;;16.70;99.90;;;;;;5066383;28;20036;-76
2022/10/17 10:37:56;;;;;;;7.88;6.85;;;16.70;99.90;;;;;;5046298;28;20040;-75
2022/10/17 10:40:36;;;;;;;8.88;6.72;;;16.60;99.90;;;;;;5061850;28;20048;-75
2022/10/17 10:43:03;;;;;;;11.60;7.15;;;16.70;99.90;;;;;;5063186;28;20049;-74
2022/10/17 10:45:35;;;;;;;9.07;7.07;;;16.50;99.90;;;;;;5063119;28;20512;-75
2022/10/17 10:48:10;;;;;;;8.70;6.55;;;16.50;99.90;;;;;;5062432;28;20123;-74
2022/10/17 10:50:46;;;;;;;12.88;8.35;;;16.50;99.90;;;;;;5062835;28;20049;-74
2022/10/17 10:53:20;;;;;;;9.75;7.28;;;16.50;99.90;;;;;;5063139;28;20124;-75
2022/10/17 10:55:50;;;;;;;11.07;7.15;;;16.50;99.90;;;;;;5064800;28;20064;-74
2022/10/17 10:58:46;;;;;;;8.80;7.22;;;16.40;99.90;;;;;;5060394;28;20052;-75
2022/10/17 11:01:28;;;;;;;11.02;6.85;;;16.50;99.90;;;;;;5049006;28;20056;-74
2022/10/17 11:04:24;;;;;;;11.65;7.85;;;16.40;99.90;;;;;;5055981;28;20051;-75
2022/10/17 11:06:57;;;;;;;13.40;8.88;;;16.60;99.90;;;;;;5059324;28;20057;-74
2022/10/17 11:09:36;;;;;;;15.95;9.35;;;16.30;99.90;;;;;;5060057;28;20041;-74
2022/10/17 11:12:19;;;;;;;14.88;9.57;;;16.30;99.90;;;;;;5043816;28;20083;-73
2022/10/17 11:14:58;;;;;;;14.88;10.00;;;16.20;99.90;;;;;;5061937;28;20057;-77
2022/10/17 11:17:47;;;;;;;15.75;10.07;;;16.20;99.90;;;;;;5060119;28;20060;-74
2022/10/17 11:20:24;;;;;;;19.02;11.52;;;16.10;99.90;;;;;;5064105;28;20040;-73
2022/10/17 11:23:00;;;;;;;17.98;10.77;;;16.20;99.90;;;;;;5064077;28;20366;-74
2022/10/17 11:25:40;;;;;;;22.88;12.00;;;16.10;99.90;;;;;;5060636;28;20494;-74
2022/10/17 11:28:14;;;;;;;15.07;10.25;;;16.10;99.90;;;;;;5061221;28;20056;-74
2022/10/17 11:30:52;;;;;;;17.40;11.43;;;16.10;99.90;;;;;;5060504;28;20390;-74
2022/10/17 11:33:26;;;;;;;14.70;10.68;;;16.30;99.90;;;;;;5062712;28;20047;-74
2022/10/17 11:35:56;;;;;;;20.20;12.25;;;16.10;99.90;;;;;;5062938;28;20041;-73
2022/10/17 11:38:34;;;;;;;15.13;10.35;;;16.20;99.90;;;;;;5059843;28;20214;-73
2022/10/17 11:41:02;;;;;;;17.25;11.77;;;16.10;99.90;;;;;;5057023;28;20472;-73
2022/10/17 11:43:30;;;;;;;20.27;12.43;;;16.80;99.90;;;;;;5063946;28;20086;-74
2022/10/17 11:46:14;;;;;;;18.02;11.30;;;16.10;99.90;;;;;;5062225;28;20037;-74
2022/10/17 11:49:08;;;;;;;20.40;11.60;;;16.10;99.90;;;;;;5059141;28;20191;-74
2022/10/17 11:51:44;;;;;;;14.48;10.40;;;16.10;99.90;;;;;;5063840;28;20072;-74
2022/10/17 11:54:16;;;;;;;18.33;11.77;;;16.10;99.90;;;;;;5062076;28;20063;-73
2022/10/17 11:56:50;;;;;;;19.27;12.10;;;16.10;99.90;;;;;;5060526;28;20037;-74
2022/10/17 11:59:44;;;;;;;17.98;11.20;;;16.10;99.90;;;;;;5062348;28;20049;-74
2022/10/17 12:02:44;;;;;;;15.38;10.30;;;16.20;99.90;;;;;;5062997;28;20052;-74
2022/10/17 12:05:38;;;;;;;17.55;11.35;;;16.10;99.90;;;;;;5062469;28;20072;-74
2022/10/17 12:08:25;;;;;;;13.10;9.30;;;16.10;99.90;;;;;;5059812;28;20032;-74
2022/10/17 12:11:00;;;;;;;24.02;13.32;;;16.10;99.90;;;;;;5062847;28;20075;-74
2022/10/17 12:13:31;;;;;;;16.27;10.73;;;16.10;99.90;;;;;;5059925;28;20060;-74
2022/10/17 12:16:17;;;;;;;16.63;11.15;;;16.10;99.90;;;;;;5063404;28;20465;-74
2022/10/17 12:18:43;;;;;;;18.52;12.15;;;16.10;99.90;;;;;;5060295;28;20049;-74
2022/10/17 12:21:09;;;;;;;18.88;11.50;;;15.90;99.90;;;;;;5063526;28;20048;-73
2022/10/17 12:23:37;;;;;;;18.60;11.85;;;16.20;99.90;;;;;;5060982;28;20496;-74
2022/10/17 12:26:08;;;;;;;16.67;12.00;;;16.30;99.90;;;;;;5066241;28;20059;-74
2022/10/17 12:28:42;;;;;;;21.25;13.18;;;16.30;99.90;;;;;;5064058;28;20044;-74
2022/10/17 12:31:21;;;;;;;19.27;13.23;;;16.10;99.90;;;;;;5062708;28;20488;-73
2022/10/17 12:33:59;;;;;;;17.40;11.25;;;16.20;99.90;;;;;;5061358;28;20056;-73
2022/10/17 12:36:28;;;;;;;18.98;13.10;;;16.20;99.90;;;;;;5060414;28;20086;-74
2022/10/17 12:39:02;;;;;;;15.10;10.85;;;16.30;99.90;;;;;;5077473;28;20085;-73
2022/10/17 12:41:37;;;;;;;17.02;11.05;;;16.30;99.90;;;;;;5061056;28;20489;-74
2022/10/17 12:44:11;;;;;;;22.23;12.98;;;16.50;99.90;;;;;;5059915;28;20048;-73
2022/10/17 12:46:45;;;;;;;14.00;10.10;;;16.30;99.90;;;;;;5060630;28;20041;-74
2022/10/17 12:49:42;;;;;;;13.82;9.70;;;16.30;99.90;;;;;;5063216;28;20119;-73
2022/10/17 12:52:46;;;;;;;13.35;9.02;;;17.20;99.90;;;;;;5061303;28;20044;-73
2022/10/17 12:55:15;;;;;;;9.27;7.15;;;16.30;99.90;;;;;;5060650;28;20072;-73
2022/10/17 12:57:45;;;;;;;9.38;6.80;;;16.40;99.90;;;;;;5061115;28;20040;-73
2022/10/17 13:00:22;;;;;;;10.18;7.70;;;16.30;99.90;;;;;;5060825;28;20048;-73
2022/10/17 13:02:50;;;;;;;13.38;8.93;;;16.50;99.90;;;;;;5062538;28;20048;-74
2022/10/17 13:05:32;;;;;;;10.75;7.10;;;16.40;99.90;;;;;;5040725;28;20094;-74
2022/10/17 13:08:02;;;;;;;10.20;7.50;;;16.40;99.90;;;;;;5044646;28;20056;-74